createdAt,value
2024-04-30T00:00:31.967Z,104.18
2024-04-30T00:03:02.371Z,111.65
2024-04-30T00:05:30.164Z,182.20
2024-04-30T00:08:00.663Z,107.35
2024-04-30T00:10:28.504Z,104.78
2024-04-30T00:13:01.702Z,114.13
2024-04-30T00:15:29.494Z,180.18
2024-04-30T00:17:59.932Z,116.00
2024-04-30T00:20:27.748Z,106.32
2024-04-30T00:22:58.172Z,111.32
2024-04-30T00:25:25.931Z,164.15
2024-04-30T00:27:56.509Z,125.63
2024-04-30T00:30:26.949Z,109.88
2024-04-30T00:32:57.340Z,106.43
2024-04-30T00:35:25.152Z,151.68
2024-04-30T00:37:55.535Z,102.35
2024-04-30T00:40:23.300Z,112.28
2024-04-30T00:42:53.679Z,116.80
2024-04-30T00:45:21.775Z,116.30
2024-04-30T00:47:55.534Z,99.57
2024-04-30T00:50:23.958Z,119.47
2024-04-30T00:52:55.117Z,114.68
2024-04-30T00:55:23.635Z,138.40
2024-04-30T00:57:54.277Z,110.72
2024-04-30T01:00:22.099Z,115.95
2024-04-30T01:02:55.146Z,122.03
2024-04-30T01:05:23.494Z,126.75
2024-04-30T01:07:53.889Z,122.93
2024-04-30T01:10:21.668Z,109.45
2024-04-30T01:12:52.846Z,102.72
2024-04-30T01:15:20.921Z,109.93
2024-04-30T01:17:51.269Z,99.85
2024-04-30T01:20:22.160Z,99.63
2024-04-30T01:22:55.144Z,108.63
2024-04-30T01:25:23.129Z,141.63
2024-04-30T01:27:53.518Z,100.90
2024-04-30T01:30:21.337Z,145.35
2024-04-30T01:32:52.170Z,125.47
2024-04-30T01:35:20.244Z,108.72
2024-04-30T01:37:50.649Z,101.72
2024-04-30T01:40:21.120Z,100.93
2024-04-30T01:42:51.814Z,101.32
2024-04-30T01:45:19.732Z,97.28
2024-04-30T01:47:50.293Z,101.20
2024-04-30T01:50:18.105Z,108.07
2024-04-30T01:52:48.611Z,105.30
2024-04-30T01:55:16.355Z,108.63
2024-04-30T01:57:49.383Z,131.20
2024-04-30T02:00:17.682Z,99.78
2024-04-30T02:02:48.030Z,114.63
2024-04-30T02:05:21.147Z,113.47
2024-04-30T02:07:55.546Z,118.32
2024-04-30T02:10:23.466Z,113.15
2024-04-30T02:12:56.502Z,122.63
2024-04-30T02:15:24.465Z,138.98
2024-04-30T02:17:54.907Z,119.30
2024-04-30T02:20:22.642Z,111.28
2024-04-30T02:22:52.956Z,101.88
2024-04-30T02:25:24.172Z,107.15
2024-04-30T02:27:54.546Z,109.13
2024-04-30T02:30:51.121Z,117.97
2024-04-30T02:33:37.063Z,114.18
2024-04-30T02:36:11.810Z,115.45
2024-04-30T02:38:42.137Z,118.45
2024-04-30T02:41:12.678Z,115.90
2024-04-30T02:43:45.702Z,156.57
2024-04-30T02:46:13.784Z,123.82
2024-04-30T02:48:47.263Z,139.52
2024-04-30T02:51:15.196Z,105.03
2024-04-30T02:53:45.596Z,131.82
2024-04-30T02:56:13.391Z,101.03
2024-04-30T02:58:46.401Z,107.50
2024-04-30T03:01:14.649Z,104.10
2024-04-30T03:03:45.524Z,121.50
2024-04-30T03:06:13.713Z,100.43
2024-04-30T03:08:44.601Z,103.00
2024-04-30T03:11:12.406Z,103.60
2024-04-30T03:13:46.569Z,165.43
2024-04-30T03:16:14.516Z,102.75
2024-04-30T03:18:44.944Z,235.38
2024-04-30T03:21:12.970Z,99.43
2024-04-30T03:23:43.660Z,149.38
2024-04-30T03:26:11.845Z,100.10
2024-04-30T03:28:45.261Z,111.13
2024-04-30T03:31:17.522Z,112.53
2024-04-30T03:33:47.994Z,101.78
2024-04-30T03:36:15.658Z,108.55
2024-04-30T03:38:46.065Z,99.72
2024-04-30T03:41:17.705Z,122.30
2024-04-30T03:43:48.408Z,104.03
2024-04-30T03:46:21.676Z,128.30
2024-04-30T03:48:52.572Z,119.50
2024-04-30T03:51:21.123Z,118.28
2024-04-30T03:53:51.612Z,114.28
2024-04-30T03:56:19.302Z,112.80
2024-04-30T03:58:49.766Z,116.18
2024-04-30T04:01:20.442Z,116.70
2024-04-30T04:03:50.834Z,130.82
2024-04-30T04:06:18.675Z,118.68
2024-04-30T04:08:49.047Z,138.00
2024-04-30T04:14:39.359Z,139.60
2024-04-30T04:17:12.530Z,113.88
2024-04-30T04:19:43.188Z,161.55
2024-04-30T04:22:11.119Z,112.55
2024-04-30T04:24:41.796Z,115.97
2024-04-30T04:27:09.622Z,113.75
2024-04-30T04:29:40.131Z,216.88
2024-04-30T04:32:10.789Z,108.55
2024-04-30T04:34:41.453Z,112.32
2024-04-30T04:37:09.184Z,124.05
2024-04-30T04:39:39.690Z,200.57
2024-04-30T04:42:11.022Z,125.25
2024-04-30T04:44:38.704Z,160.02
2024-04-30T04:47:09.121Z,131.52
2024-04-30T04:49:39.652Z,202.88
2024-04-30T04:52:10.112Z,123.88
2024-04-30T04:54:37.943Z,128.10
2024-04-30T04:57:08.769Z,127.55
2024-04-30T04:59:36.546Z,207.18
2024-04-30T05:02:07.910Z,119.22
2024-04-30T05:04:35.732Z,121.45
2024-04-30T05:07:08.831Z,154.68
2024-04-30T05:09:36.756Z,220.90
2024-04-30T05:12:07.751Z,167.32
2024-04-30T05:14:35.562Z,132.38
2024-04-30T05:17:06.697Z,127.82
2024-04-30T05:19:35.000Z,213.48
2024-04-30T05:22:05.643Z,127.97
2024-04-30T05:24:36.141Z,126.47
2024-04-30T05:27:06.831Z,147.15
2024-04-30T05:29:34.794Z,214.10
2024-04-30T05:32:05.192Z,130.55
2024-04-30T05:34:35.854Z,140.45
2024-04-30T05:37:03.982Z,139.63
2024-04-30T05:39:34.697Z,211.02
2024-04-30T05:42:05.873Z,139.52
2024-04-30T05:44:36.293Z,166.68
2024-04-30T05:47:04.436Z,141.05
2024-04-30T05:49:35.307Z,242.05
2024-04-30T05:52:03.291Z,146.23
2024-04-30T05:54:33.741Z,171.60
2024-04-30T05:57:04.902Z,150.48
2024-04-30T05:59:35.292Z,221.27
2024-04-30T06:02:03.071Z,154.32
2024-04-30T06:04:33.604Z,170.32
2024-04-30T06:07:01.478Z,181.63
2024-04-30T06:09:32.097Z,240.55
2024-04-30T06:11:59.894Z,171.15
2024-04-30T06:14:32.927Z,163.75
2024-04-30T06:17:00.722Z,157.65
2024-04-30T06:19:31.164Z,231.32
2024-04-30T06:21:58.934Z,165.57
2024-04-30T06:24:30.068Z,167.02
2024-04-30T06:26:57.857Z,175.30
2024-04-30T06:29:28.595Z,211.60
2024-04-30T06:31:59.010Z,172.10
2024-04-30T06:34:29.703Z,173.57
2024-04-30T06:36:57.432Z,188.38
2024-04-30T06:39:28.130Z,225.55
2024-04-30T06:41:55.967Z,179.88
2024-04-30T06:44:26.969Z,190.38
2024-04-30T06:46:54.695Z,183.27
2024-04-30T06:49:28.219Z,211.15
2024-04-30T06:51:56.150Z,198.55
2024-04-30T06:54:26.840Z,211.23
2024-04-30T06:56:54.670Z,225.20
2024-04-30T06:59:25.379Z,240.48
2024-04-30T07:01:53.148Z,248.88
2024-04-30T07:04:23.967Z,280.02
2024-04-30T07:06:54.502Z,296.45
2024-04-30T07:09:25.035Z,322.80
2024-04-30T07:11:52.827Z,363.58
2024-04-30T07:14:23.218Z,340.33
2024-04-30T07:16:56.842Z,355.17
2024-04-30T07:19:33.922Z,423.55
2024-04-30T07:22:04.920Z,359.60
2024-04-30T07:24:36.353Z,373.48
2024-04-30T07:27:04.289Z,397.08
2024-04-30T07:29:34.729Z,505.33
2024-04-30T07:32:02.529Z,395.27
2024-04-30T07:34:33.101Z,408.92
2024-04-30T07:37:03.779Z,402.48
2024-04-30T07:39:34.179Z,476.45
2024-04-30T07:42:03.390Z,409.48
2024-04-30T07:44:34.971Z,463.38
2024-04-30T07:47:02.833Z,427.33
2024-04-30T07:49:33.428Z,487.13
2024-04-30T07:52:04.267Z,409.63
2024-04-30T07:54:35.002Z,412.90
2024-04-30T07:57:02.815Z,461.05
2024-04-30T07:59:33.506Z,492.00
2024-04-30T08:02:01.416Z,442.70
2024-04-30T08:04:31.960Z,435.20
2024-04-30T08:06:59.810Z,443.90
2024-04-30T08:09:33.418Z,537.72
2024-04-30T08:12:01.226Z,483.98
2024-04-30T08:14:36.284Z,440.80
2024-04-30T08:17:05.325Z,485.77
2024-04-30T08:19:36.192Z,533.03
2024-04-30T08:22:04.526Z,467.60
2024-04-30T08:24:37.672Z,480.40
2024-04-30T08:27:05.752Z,474.77
2024-04-30T08:29:36.262Z,516.65
2024-04-30T08:32:05.002Z,488.50
2024-04-30T08:34:35.602Z,468.73
2024-04-30T08:37:03.638Z,459.98
2024-04-30T08:39:38.454Z,538.63
2024-04-30T08:42:06.596Z,466.45
2024-04-30T08:44:39.630Z,486.35
2024-04-30T08:47:08.536Z,481.58
2024-04-30T08:49:47.012Z,587.88
2024-04-30T08:52:20.277Z,494.38
2024-04-30T08:54:55.536Z,539.97
2024-04-30T08:57:23.727Z,522.97
2024-04-30T08:59:54.233Z,497.65
2024-04-30T09:02:23.723Z,533.05
2024-04-30T09:04:54.949Z,484.63
2024-04-30T09:07:24.175Z,489.55
2024-04-30T09:10:02.121Z,471.83
2024-04-30T09:12:32.091Z,511.13
2024-04-30T09:15:02.779Z,510.58
2024-04-30T09:17:31.060Z,570.33
2024-04-30T09:20:09.190Z,538.20
2024-04-30T09:22:48.140Z,510.25
2024-04-30T09:25:24.325Z,506.98
2024-04-30T09:27:53.161Z,502.02
2024-04-30T09:30:25.163Z,488.40
2024-04-30T09:32:53.373Z,517.70
2024-04-30T09:35:31.172Z,503.98
2024-04-30T09:38:05.068Z,523.40
2024-04-30T09:40:39.999Z,519.20
2024-04-30T09:43:08.343Z,532.38
2024-04-30T09:45:39.193Z,571.83
2024-04-30T09:48:09.922Z,534.03
2024-04-30T09:50:43.164Z,544.00
2024-04-30T09:53:12.993Z,521.90
2024-04-30T09:55:47.464Z,558.22
2024-04-30T09:58:16.612Z,515.95
2024-04-30T10:00:48.510Z,512.28
2024-04-30T10:03:20.537Z,497.80
2024-04-30T10:05:55.035Z,518.90
2024-04-30T10:08:24.404Z,520.72
2024-04-30T10:11:08.862Z,507.95
2024-04-30T10:13:37.072Z,576.23
2024-04-30T10:16:16.864Z,497.77
2024-04-30T10:18:44.985Z,510.10
2024-04-30T10:21:16.219Z,491.60
2024-04-30T10:23:45.400Z,525.00
2024-04-30T10:26:18.726Z,491.77
2024-04-30T10:28:46.692Z,499.83
2024-04-30T10:31:20.537Z,505.90
2024-04-30T10:33:51.207Z,482.17
2024-04-30T10:36:21.830Z,495.17
2024-04-30T10:38:52.579Z,491.90
2024-04-30T10:41:28.160Z,499.60
2024-04-30T10:44:06.310Z,480.90
2024-04-30T10:46:34.402Z,467.45
2024-04-30T10:49:06.881Z,467.63
2024-04-30T10:51:38.718Z,546.22
2024-04-30T10:54:09.859Z,478.52
2024-04-30T10:56:43.271Z,472.38
2024-04-30T10:59:11.276Z,493.75
2024-04-30T11:01:41.856Z,526.72
2024-04-30T11:04:11.415Z,452.85
2024-04-30T11:06:43.343Z,433.40
2024-04-30T11:09:12.600Z,436.45
2024-04-30T11:11:55.156Z,456.55
2024-04-30T11:14:27.227Z,395.60
2024-04-30T11:16:55.787Z,384.25
2024-04-30T11:19:27.199Z,380.23
2024-04-30T11:21:55.635Z,354.83
2024-04-30T11:24:26.276Z,304.98
2024-04-30T11:26:57.014Z,311.38
2024-04-30T11:29:35.284Z,328.42
2024-04-30T11:32:10.751Z,300.52
2024-04-30T11:34:38.999Z,316.02
2024-04-30T11:37:09.770Z,313.20
2024-04-30T11:39:43.622Z,398.17
2024-04-30T11:42:20.975Z,314.90
2024-04-30T11:44:55.333Z,309.90
2024-04-30T11:47:24.202Z,308.10
2024-04-30T11:49:54.934Z,296.02
2024-04-30T11:52:23.278Z,316.85
2024-04-30T11:54:53.803Z,302.95
2024-04-30T11:57:27.385Z,300.35
2024-04-30T11:59:57.890Z,265.02
2024-04-30T12:02:26.128Z,274.00
2024-04-30T12:04:56.823Z,267.55
2024-04-30T12:07:27.989Z,305.90
2024-04-30T12:09:56.067Z,273.00
2024-04-30T12:12:29.417Z,271.65
2024-04-30T12:14:57.896Z,270.42
2024-04-30T12:17:28.723Z,302.52
2024-04-30T12:19:56.677Z,280.38
2024-04-30T12:22:27.598Z,266.05
2024-04-30T12:24:56.271Z,289.35
2024-04-30T12:27:29.590Z,281.65
2024-04-30T12:29:57.401Z,282.15
2024-04-30T12:32:28.050Z,261.38
2024-04-30T12:34:56.252Z,278.05
2024-04-30T12:37:26.923Z,285.58
2024-04-30T12:39:54.929Z,284.98
2024-04-30T12:42:26.676Z,280.05
2024-04-30T12:44:57.480Z,285.48
2024-04-30T12:47:28.786Z,308.42
2024-04-30T12:49:56.705Z,263.02
2024-04-30T12:52:27.712Z,276.05
2024-04-30T12:54:55.642Z,279.33
2024-04-30T12:57:26.251Z,283.05
2024-04-30T12:59:56.815Z,271.83
2024-04-30T13:02:27.648Z,287.95
2024-04-30T13:04:55.749Z,275.75
2024-04-30T13:07:26.542Z,304.30
2024-04-30T13:09:54.510Z,278.52
2024-04-30T13:12:25.128Z,273.95
2024-04-30T13:14:53.356Z,296.92
2024-04-30T13:17:28.176Z,284.10
2024-04-30T13:19:56.322Z,298.00
2024-04-30T13:22:27.071Z,291.08
2024-04-30T13:24:54.963Z,289.13
2024-04-30T13:27:25.676Z,281.67
2024-04-30T13:29:53.712Z,285.73
2024-04-30T13:32:27.065Z,276.73
2024-04-30T13:34:54.959Z,342.98
2024-04-30T13:37:27.209Z,284.00
2024-04-30T13:39:55.164Z,277.40
2024-04-30T13:42:25.666Z,276.33
2024-04-30T13:44:53.835Z,265.48
2024-04-30T13:47:27.730Z,275.45
2024-04-30T13:49:55.801Z,275.70
2024-04-30T13:52:26.495Z,283.85
2024-04-30T13:54:56.992Z,276.95
2024-04-30T13:57:25.772Z,298.83
2024-04-30T13:59:56.780Z,276.17
2024-04-30T14:02:27.899Z,272.95
2024-04-30T14:04:58.463Z,273.60
2024-04-30T14:07:29.535Z,319.23
2024-04-30T14:09:57.347Z,276.77
2024-04-30T14:12:27.981Z,268.67
2024-04-30T14:14:56.476Z,275.92
2024-04-30T14:17:30.134Z,295.52
2024-04-30T14:19:58.055Z,284.10
2024-04-30T14:22:28.582Z,271.30
2024-04-30T14:24:56.469Z,273.35
2024-04-30T14:27:27.151Z,288.40
2024-04-30T14:29:55.245Z,276.42
2024-04-30T14:32:27.161Z,269.17
2024-04-30T14:34:57.735Z,269.25
2024-04-30T14:37:31.282Z,297.88
2024-04-30T14:39:59.337Z,285.67
2024-04-30T14:42:30.042Z,277.98
2024-04-30T14:44:58.158Z,271.23
2024-04-30T14:47:29.509Z,315.92
2024-04-30T14:50:00.228Z,263.25
2024-04-30T14:52:30.914Z,296.20
2024-04-30T14:54:58.938Z,266.83
2024-04-30T14:57:29.738Z,312.50
2024-04-30T14:59:57.596Z,303.08
2024-04-30T15:02:28.169Z,334.00
2024-04-30T15:05:07.996Z,304.20
2024-04-30T15:07:38.870Z,351.15
2024-04-30T15:10:08.168Z,268.63
2024-04-30T15:12:38.847Z,269.25
2024-04-30T15:15:08.604Z,268.15
2024-04-30T15:17:40.608Z,331.20
2024-04-30T15:20:13.316Z,264.42
2024-04-30T15:22:43.917Z,273.63
2024-04-30T15:25:11.870Z,264.90
2024-04-30T15:27:42.669Z,346.83
2024-04-30T15:30:11.988Z,270.83
2024-04-30T15:32:43.085Z,262.92
2024-04-30T15:35:13.834Z,287.83
2024-04-30T15:37:44.604Z,346.30
2024-04-30T15:40:12.716Z,261.50
2024-04-30T15:42:43.681Z,253.38
2024-04-30T15:45:11.589Z,265.85
2024-04-30T15:47:43.171Z,328.20
2024-04-30T15:50:14.337Z,253.27
2024-04-30T15:52:45.013Z,251.95
2024-04-30T15:55:12.875Z,260.17
2024-04-30T15:57:43.484Z,360.50
2024-04-30T16:00:12.152Z,259.30
2024-04-30T16:02:46.635Z,264.58
2024-04-30T16:05:17.533Z,243.35
2024-04-30T16:07:48.193Z,285.77
2024-04-30T16:10:16.311Z,252.50
2024-04-30T16:12:47.478Z,260.70
2024-04-30T16:15:16.094Z,251.13
2024-04-30T16:17:47.863Z,314.42
2024-04-30T16:20:19.129Z,236.70
2024-04-30T16:22:49.674Z,243.07
2024-04-30T16:25:17.972Z,239.80
2024-04-30T16:27:48.706Z,289.25
2024-04-30T16:30:16.947Z,260.52
2024-04-30T16:32:47.628Z,259.08
2024-04-30T16:35:18.356Z,275.42
2024-04-30T16:37:48.934Z,265.42
2024-04-30T16:40:17.132Z,236.43
2024-04-30T16:42:47.795Z,226.77
2024-04-30T16:45:15.739Z,230.40
2024-04-30T16:47:46.606Z,309.05
2024-04-30T16:50:14.821Z,219.02
2024-04-30T16:52:48.611Z,235.70
2024-04-30T16:55:16.467Z,225.90
2024-04-30T16:57:47.065Z,272.27
2024-04-30T17:00:15.468Z,216.98
2024-04-30T17:02:46.003Z,234.77
2024-04-30T17:05:14.418Z,209.25
2024-04-30T17:07:47.904Z,289.30
2024-04-30T17:10:18.763Z,219.18
2024-04-30T17:12:49.429Z,204.10
2024-04-30T17:15:17.444Z,219.45
2024-04-30T17:17:47.971Z,257.42
2024-04-30T17:20:16.504Z,211.80
2024-04-30T17:22:49.886Z,211.38
2024-04-30T17:25:17.765Z,216.32
2024-04-30T17:27:48.480Z,246.30
2024-04-30T17:30:16.638Z,207.10
2024-04-30T17:32:47.337Z,208.60
2024-04-30T17:35:15.337Z,212.35
2024-04-30T17:37:48.644Z,305.40
2024-04-30T17:40:16.628Z,204.93
2024-04-30T17:42:47.163Z,204.57
2024-04-30T17:45:18.090Z,211.63
2024-04-30T17:47:45.976Z,242.00
2024-04-30T17:50:17.383Z,203.88
2024-04-30T17:52:47.891Z,199.60
2024-04-30T17:55:18.477Z,217.65
2024-04-30T17:57:46.531Z,239.88
2024-04-30T18:00:17.576Z,191.88
2024-04-30T18:02:45.511Z,195.95
2024-04-30T18:05:16.102Z,196.45
2024-04-30T18:07:46.649Z,251.85
2024-04-30T18:10:20.743Z,197.77
2024-04-30T18:12:53.495Z,180.77
2024-04-30T18:15:24.099Z,193.30
2024-04-30T18:17:55.231Z,173.18
2024-04-30T18:20:23.198Z,182.60
2024-04-30T18:22:56.326Z,172.00
2024-04-30T18:25:24.494Z,171.70
2024-04-30T18:27:54.966Z,178.02
2024-04-30T18:30:23.211Z,172.27
2024-04-30T18:32:54.316Z,166.65
2024-04-30T18:35:22.731Z,182.82
2024-04-30T18:37:56.248Z,171.32
2024-04-30T18:40:24.099Z,191.02
2024-04-30T18:42:54.710Z,170.77
2024-04-30T18:45:23.069Z,188.63
2024-04-30T18:47:54.138Z,172.32
2024-04-30T18:50:22.086Z,163.88
2024-04-30T18:52:54.112Z,178.65
2024-04-30T18:55:25.179Z,164.38
2024-04-30T18:57:56.791Z,176.80
2024-04-30T19:00:24.971Z,162.55
2024-04-30T19:02:57.414Z,168.18
2024-04-30T19:05:26.132Z,180.32
2024-04-30T19:07:58.154Z,178.48
2024-04-30T19:10:29.778Z,185.50
2024-04-30T19:13:01.885Z,192.68
2024-04-30T19:15:30.850Z,211.35
2024-04-30T19:18:02.647Z,163.65
2024-04-30T19:20:32.696Z,183.15
2024-04-30T19:23:04.411Z,161.13
2024-04-30T19:25:36.111Z,237.05
2024-04-30T19:28:08.463Z,157.77
2024-04-30T19:30:38.025Z,161.35
2024-04-30T19:33:11.488Z,158.77
2024-04-30T19:35:39.828Z,234.07
2024-04-30T19:38:13.388Z,170.43
2024-04-30T19:40:46.558Z,165.95
2024-04-30T19:43:19.072Z,170.27
2024-04-30T19:45:48.382Z,167.38
2024-04-30T19:48:21.373Z,160.98
2024-04-30T19:50:51.847Z,152.57
2024-04-30T19:53:25.005Z,165.32
2024-04-30T19:55:56.169Z,160.10
2024-04-30T19:58:27.495Z,166.98
2024-04-30T20:00:56.646Z,181.55
2024-04-30T20:03:30.448Z,169.35
2024-04-30T20:06:01.481Z,166.02
2024-04-30T20:08:34.254Z,165.82
2024-04-30T20:11:15.321Z,154.55
2024-04-30T20:13:46.916Z,225.68
2024-04-30T20:16:16.399Z,149.38
2024-04-30T20:18:49.908Z,158.70
2024-04-30T20:21:18.363Z,153.45
2024-04-30T20:23:50.199Z,188.13
2024-04-30T20:26:23.275Z,166.32
2024-04-30T20:28:53.953Z,156.38
2024-04-30T20:31:22.909Z,173.90
2024-04-30T20:33:54.186Z,161.23
2024-04-30T20:36:22.991Z,153.90
2024-04-30T20:38:56.669Z,157.07
2024-04-30T20:41:31.422Z,175.65
2024-04-30T20:44:02.476Z,145.07
2024-04-30T20:46:30.829Z,155.38
2024-04-30T20:49:01.771Z,140.05
2024-04-30T20:51:30.399Z,190.80
2024-04-30T20:54:01.777Z,161.45
2024-04-30T20:56:32.429Z,153.10
2024-04-30T20:59:03.038Z,148.07
2024-04-30T21:01:31.456Z,144.65
2024-04-30T21:04:02.481Z,141.75
2024-04-30T21:06:30.543Z,146.75
2024-04-30T21:09:01.079Z,150.90
2024-04-30T21:11:29.147Z,152.20
2024-04-30T21:14:02.394Z,152.45
2024-04-30T21:16:30.545Z,139.95
2024-04-30T21:19:01.365Z,158.98
2024-04-30T21:21:29.535Z,147.57
2024-04-30T21:24:00.201Z,148.63
2024-04-30T21:26:28.028Z,143.77
2024-04-30T21:28:58.492Z,170.90
2024-04-30T21:31:29.451Z,147.10
2024-04-30T21:34:00.113Z,140.88
2024-04-30T21:36:28.417Z,145.73
2024-04-30T21:38:58.948Z,143.52
2024-04-30T21:41:26.806Z,153.00
2024-04-30T21:43:58.710Z,138.77
2024-04-30T21:46:29.522Z,144.73
2024-04-30T21:49:00.075Z,143.30
2024-04-30T21:51:29.040Z,142.13
2024-04-30T21:53:59.541Z,143.65
2024-04-30T21:56:29.712Z,149.40
2024-04-30T21:59:00.348Z,151.05
2024-04-30T22:01:31.434Z,139.57
2024-04-30T22:04:02.028Z,159.55
2024-04-30T22:06:31.570Z,140.88
2024-04-30T22:09:02.096Z,138.38
2024-04-30T22:11:32.726Z,137.77
2024-04-30T22:14:00.729Z,139.88
2024-04-30T22:16:34.023Z,139.98
2024-04-30T22:19:01.842Z,137.32
2024-04-30T22:21:32.723Z,164.52
2024-04-30T22:24:03.282Z,138.40
2024-04-30T22:26:32.430Z,143.75
2024-04-30T22:29:02.927Z,155.48
2024-04-30T22:31:36.534Z,140.80
2024-04-30T22:34:07.733Z,146.07
2024-04-30T22:36:38.374Z,149.30
2024-04-30T22:39:06.391Z,139.07
2024-04-30T22:41:37.017Z,198.30
2024-04-30T22:44:04.870Z,139.65
2024-04-30T22:46:35.286Z,162.85
2024-04-30T22:49:05.821Z,143.68
2024-04-30T22:51:36.398Z,166.35
2024-04-30T22:54:04.266Z,142.07
2024-04-30T22:56:37.811Z,135.88
2024-04-30T22:59:05.582Z,142.90
2024-04-30T23:01:36.425Z,159.07
2024-04-30T23:04:07.043Z,146.50
2024-04-30T23:06:37.615Z,147.15
2024-04-30T23:09:05.537Z,139.35
2024-04-30T23:11:36.331Z,149.75
2024-04-30T23:14:04.243Z,138.15
2024-04-30T23:16:37.125Z,147.95
2024-04-30T23:19:07.616Z,173.40
2024-04-30T23:21:38.851Z,189.10
2024-04-30T23:24:07.012Z,144.07
2024-04-30T23:26:37.432Z,174.23
2024-04-30T23:29:05.233Z,179.05
2024-04-30T23:31:35.786Z,249.88
2024-04-30T23:34:03.722Z,155.27
2024-04-30T23:36:36.840Z,162.25
2024-04-30T23:39:05.698Z,157.65
2024-04-30T23:41:36.166Z,193.75
2024-04-30T23:44:04.062Z,145.98
2024-04-30T23:46:34.866Z,146.80
2024-04-30T23:49:02.870Z,144.75
2024-04-30T23:51:33.731Z,152.90
2024-04-30T23:54:04.595Z,168.98
2024-04-30T23:56:35.660Z,132.65
2024-04-30T23:59:04.024Z,153.20
